createdAt,value
2022-08-21T00:01:42.283Z,100378.72
2022-08-21T00:06:43.843Z,100373.59
2022-08-21T00:11:46.137Z,100381.91
2022-08-21T00:16:47.794Z,100378.72
2022-08-21T00:21:51.638Z,100378.59
2022-08-21T00:26:53.784Z,100372.66
2022-08-21T00:31:55.531Z,100358.97
2022-08-21T00:36:57.092Z,100356.09
2022-08-21T00:41:58.644Z,100347.25
2022-08-21T00:47:00.371Z,100353.81
2022-08-21T00:52:02.748Z,100346.06
2022-08-21T00:57:12.632Z,100346.53
2022-08-21T01:02:23.293Z,100345.28
2022-08-21T01:07:27.629Z,100338.47
2022-08-21T01:12:29.675Z,100351.41
2022-08-21T01:17:32.587Z,100350.88
2022-08-21T01:22:34.171Z,100342.78
2022-08-21T01:27:36.240Z,100331.56
2022-08-21T01:32:37.859Z,100329.19
2022-08-21T01:37:39.551Z,100330.38
2022-08-21T01:42:41.290Z,100334.31
2022-08-21T01:47:44.226Z,100323.69
2022-08-21T01:52:46.340Z,100329.25
2022-08-21T01:57:48.593Z,100329.63
2022-08-21T02:02:50.816Z,100327.09
2022-08-21T02:07:54.259Z,100325.66
2022-08-21T02:12:57.089Z,100312.69
2022-08-21T02:18:02.108Z,100314.06
2022-08-21T02:23:05.144Z,100305.72
2022-08-21T02:28:10.597Z,100295.47
2022-08-21T02:33:12.652Z,100294.25
2022-08-21T02:38:18.009Z,100294.72
2022-08-21T02:43:21.735Z,100295.44
2022-08-21T02:48:27.340Z,100295.75
2022-08-21T02:53:30.489Z,100297.75
2022-08-21T02:58:35.751Z,100302.41
2022-08-21T03:03:40.132Z,100298.09
2022-08-21T03:08:41.809Z,100289.97
2022-08-21T03:13:43.508Z,100297.13
2022-08-21T03:18:45.139Z,100297.22
2022-08-21T03:23:47.551Z,100305.28
2022-08-21T03:28:49.736Z,100296.78
2022-08-21T03:33:51.919Z,100299.81
2022-08-21T03:38:53.510Z,100305.47
2022-08-21T03:43:55.192Z,100302.19
2022-08-21T03:48:56.981Z,100301.78
2022-08-21T03:53:58.936Z,100299.06
2022-08-21T03:59:00.503Z,100301.06
2022-08-21T04:04:02.141Z,100299.38
2022-08-21T04:09:03.752Z,100304.41
2022-08-21T04:14:05.435Z,100314.47
2022-08-21T04:19:07.071Z,100325.94
2022-08-21T04:24:10.611Z,100330.94
2022-08-21T04:29:12.417Z,100337.19
2022-08-21T04:34:14.473Z,100334.50
2022-08-21T04:39:16.037Z,100344.19
2022-08-21T04:44:17.661Z,100338.03
2022-08-21T04:49:19.229Z,100343.50
2022-08-21T04:54:22.856Z,100350.81
2022-08-21T04:59:32.326Z,100354.06
2022-08-21T05:04:37.807Z,100369.69
2022-08-21T05:09:39.900Z,100371.19
2022-08-21T05:14:43.268Z,100382.06
2022-08-21T05:19:44.847Z,100393.06
2022-08-21T05:24:46.394Z,100405.69
2022-08-21T05:29:47.951Z,100411.63
2022-08-21T05:34:49.512Z,100414.72
2022-08-21T05:40:04.696Z,100421.78
2022-08-21T05:45:12.923Z,100427.41
2022-08-21T05:50:14.523Z,100437.34
2022-08-21T05:55:16.110Z,100442.69
2022-08-21T06:00:17.879Z,100450.09
2022-08-21T06:05:33.395Z,100463.50
2022-08-21T06:10:39.157Z,100476.84
2022-08-21T06:15:40.851Z,100480.66
2022-08-21T06:20:45.043Z,100500.28
2022-08-21T06:25:47.220Z,100506.84
2022-08-21T06:30:48.863Z,100517.59
2022-08-21T06:35:50.787Z,100513.34
2022-08-21T06:40:52.363Z,100517.00
2022-08-21T06:45:53.945Z,100510.00
2022-08-21T06:50:56.953Z,100514.94
2022-08-21T06:55:58.507Z,100519.81
2022-08-21T07:01:01.306Z,100524.63
2022-08-21T07:06:04.222Z,100527.19
2022-08-21T07:11:12.449Z,100528.22
2022-08-21T07:16:14.129Z,100543.75
2022-08-21T07:21:20.752Z,100541.59
2022-08-21T07:26:25.426Z,100541.13
2022-08-21T07:31:27.779Z,100552.59
2022-08-21T07:36:29.399Z,100554.69
2022-08-21T07:41:35.668Z,100556.56
2022-08-21T07:46:37.247Z,100564.41
2022-08-21T07:51:38.839Z,100575.75
2022-08-21T07:56:40.391Z,100577.97
2022-08-21T08:01:42.316Z,100577.03
2022-08-21T08:06:44.049Z,100573.34
2022-08-21T08:11:46.713Z,100575.75
2022-08-21T08:16:48.281Z,100584.31
2022-08-21T08:21:50.449Z,100575.16
2022-08-21T08:26:53.706Z,100583.00
2022-08-21T08:31:55.968Z,100578.78
2022-08-21T08:36:59.536Z,100572.53
2022-08-21T08:42:32.378Z,100570.44
2022-08-21T08:47:32.124Z,100561.25
2022-08-21T08:52:43.647Z,100561.41
2022-08-21T08:57:49.457Z,100566.72
2022-08-21T09:03:00.723Z,100556.59
2022-08-21T09:08:24.078Z,100564.13
2022-08-21T09:13:38.589Z,100548.63
2022-08-21T09:18:57.852Z,100545.81
2022-08-21T09:24:17.371Z,100553.16
2022-08-21T09:29:21.666Z,100570.63
2022-08-21T09:34:29.963Z,100552.50
2022-08-21T09:39:39.870Z,100544.06
2022-08-21T09:44:44.835Z,100543.41
2022-08-21T09:49:46.431Z,100560.94
2022-08-21T09:54:53.938Z,100570.91
2022-08-21T09:59:56.330Z,100569.28
2022-08-21T10:05:01.071Z,100588.97
2022-08-21T10:10:15.415Z,100588.59
2022-08-21T10:15:23.382Z,100592.53
2022-08-21T10:20:37.221Z,100582.16
2022-08-21T10:26:13.572Z,100584.59
2022-08-21T10:31:39.607Z,100590.06
2022-08-21T10:37:07.798Z,100566.25
2022-08-21T10:42:53.908Z,100575.91
2022-08-21T10:47:58.368Z,100574.16
2022-08-21T10:53:20.404Z,100607.09
2022-08-21T10:58:35.771Z,100622.00
2022-08-21T11:03:44.733Z,100618.69
2022-08-21T11:08:52.095Z,100582.84
2022-08-21T11:14:25.323Z,100577.06
2022-08-21T11:19:46.022Z,100561.34
2022-08-21T11:25:01.652Z,100524.44
2022-08-21T11:30:04.507Z,100579.34
2022-08-21T11:35:34.639Z,100614.69
2022-08-21T11:40:53.115Z,100594.72
2022-08-21T11:46:00.200Z,100607.78
2022-08-21T11:51:07.977Z,100568.13
2022-08-21T11:56:20.035Z,100520.50
2022-08-21T12:01:34.238Z,100544.94
2022-08-21T12:06:41.840Z,100565.75
2022-08-21T12:12:06.653Z,100597.50
2022-08-21T12:17:12.231Z,100589.91
2022-08-21T12:22:15.812Z,100587.78
2022-08-21T12:27:27.660Z,100599.16
2022-08-21T12:32:43.236Z,100611.25
2022-08-21T12:37:50.872Z,100578.66
2022-08-21T12:42:59.308Z,100565.53
2022-08-21T12:48:08.173Z,100553.69
2022-08-21T12:53:41.326Z,100571.06
2022-08-21T12:58:51.872Z,100565.56
2022-08-21T13:04:04.947Z,100563.72
2022-08-21T13:09:10.858Z,100598.72
2022-08-21T13:14:26.893Z,100613.78
2022-08-21T13:19:30.524Z,100579.63
2022-08-21T13:24:44.887Z,100642.72
2022-08-21T13:29:53.291Z,100596.50
2022-08-21T13:34:55.810Z,100582.28
2022-08-21T13:39:57.438Z,100562.47
2022-08-21T13:44:59.123Z,100557.97
2022-08-21T13:50:00.787Z,100537.41
2022-08-21T13:55:13.718Z,100519.00
2022-08-21T14:00:28.127Z,100506.88
2022-08-21T14:05:33.625Z,100526.41
2022-08-21T14:10:42.124Z,100531.81
2022-08-21T14:15:44.491Z,100571.13
2022-08-21T14:20:46.414Z,100578.34
2022-08-21T14:25:48.010Z,100571.38
2022-08-21T14:30:51.595Z,100555.94
2022-08-21T14:35:55.667Z,100553.91
2022-08-21T14:41:04.869Z,100546.63
2022-08-21T14:46:06.474Z,100585.75
2022-08-21T14:51:08.028Z,100627.63
2022-08-21T14:56:10.975Z,100663.75
2022-08-21T15:01:14.346Z,100662.56
2022-08-21T15:06:18.605Z,100653.97
2022-08-21T15:11:42.165Z,100647.69
2022-08-21T15:16:44.625Z,100649.50
2022-08-21T15:21:46.192Z,100642.19
2022-08-21T15:26:48.540Z,100607.66
2022-08-21T15:31:53.523Z,100586.44
2022-08-21T15:36:58.461Z,100530.81
2022-08-21T15:42:02.789Z,100535.59
2022-08-21T15:47:19.278Z,100560.03
2022-08-21T15:52:22.410Z,100540.84
2022-08-21T15:57:25.385Z,100502.00
2022-08-21T16:02:31.282Z,100479.66
2022-08-21T16:07:32.892Z,100461.47
2022-08-21T16:12:38.827Z,100473.41
2022-08-21T16:17:45.328Z,100441.66
2022-08-21T16:22:47.379Z,100433.41
2022-08-21T16:27:56.199Z,100429.94
2022-08-21T16:38:33.386Z,100395.94
2022-08-21T16:43:39.947Z,100394.00
2022-08-21T16:48:44.939Z,100403.31
2022-08-21T16:53:46.495Z,100388.81
2022-08-21T16:58:50.253Z,100362.47
2022-08-21T17:03:53.337Z,100348.59
2022-08-21T17:08:54.885Z,100396.84
2022-08-21T17:13:58.711Z,100491.78
2022-08-21T17:19:00.397Z,100626.34
2022-08-21T17:24:01.975Z,100714.47
2022-08-21T17:29:09.675Z,100789.81
2022-08-21T17:34:12.497Z,100840.50
2022-08-21T17:39:26.447Z,100879.28
2022-08-21T17:44:28.385Z,100913.91
2022-08-21T17:49:29.919Z,100924.28
2022-08-21T17:54:31.577Z,100916.16
2022-08-21T17:59:34.571Z,100895.59
2022-08-21T18:04:36.118Z,100835.63
2022-08-21T18:09:37.666Z,100712.09
2022-08-21T18:20:42.429Z,100457.34
2022-08-21T18:25:49.460Z,100347.97
2022-08-21T18:30:54.175Z,100241.25
2022-08-21T18:35:55.704Z,100164.97
2022-08-21T18:40:59.789Z,100091.44
2022-08-21T18:46:02.150Z,100025.19
2022-08-21T18:51:04.895Z,99952.53
2022-08-21T18:56:16.001Z,99884.53
2022-08-21T19:01:17.849Z,99853.66
2022-08-21T19:06:20.111Z,99799.06
2022-08-21T19:11:25.037Z,99761.47
2022-08-21T19:16:26.788Z,99735.19
2022-08-21T19:21:28.748Z,99728.28
2022-08-21T19:26:32.181Z,99735.72
2022-08-21T19:31:45.357Z,99759.72
2022-08-21T19:36:47.150Z,99772.13
2022-08-21T19:41:54.027Z,99770.66
2022-08-21T19:46:57.865Z,99791.88
2022-08-21T19:52:00.139Z,99812.13
2022-08-21T19:57:06.835Z,99827.19
2022-08-21T20:02:09.867Z,99820.63
2022-08-21T20:07:11.537Z,99814.63
2022-08-21T20:12:15.657Z,99818.53
2022-08-21T20:17:19.261Z,99832.72
2022-08-21T20:22:21.580Z,99837.41
2022-08-21T20:27:27.611Z,99837.66
2022-08-21T20:32:29.291Z,99842.09
2022-08-21T20:37:37.016Z,99830.06
2022-08-21T20:42:44.659Z,99823.50
2022-08-21T20:47:46.803Z,99835.16
2022-08-21T20:53:00.635Z,99845.41
2022-08-21T20:58:30.812Z,99877.75
2022-08-21T21:03:38.119Z,99891.88
2022-08-21T21:08:49.789Z,99893.84
2022-08-21T21:14:02.004Z,99880.28
2022-08-21T21:19:20.976Z,99890.25
2022-08-21T21:24:29.050Z,99902.69
2022-08-21T21:29:40.066Z,99899.94
2022-08-21T21:34:46.325Z,99917.59
2022-08-21T21:40:32.769Z,99929.19
2022-08-21T21:45:43.846Z,99940.50
2022-08-21T21:51:12.105Z,99943.25
2022-08-21T21:56:42.608Z,99965.38
2022-08-21T22:01:55.684Z,99983.34
2022-08-21T22:07:12.921Z,99992.16
2022-08-21T22:18:05.663Z,100011.53
2022-08-21T22:23:15.912Z,100010.44
2022-08-21T22:28:25.537Z,100029.56
2022-08-21T22:33:29.407Z,100046.44
2022-08-21T22:38:36.899Z,100038.41
2022-08-21T22:43:51.218Z,100041.91
2022-08-21T22:49:09.104Z,100043.78
2022-08-21T22:54:22.056Z,100034.56
2022-08-21T22:59:30.732Z,100040.09
2022-08-21T23:04:33.701Z,100041.50
2022-08-21T23:09:48.116Z,100055.56
2022-08-21T23:14:54.754Z,100053.53
2022-08-21T23:20:43.609Z,100045.47
2022-08-21T23:25:58.411Z,100052.13
2022-08-21T23:31:35.155Z,100055.44
2022-08-21T23:37:13.691Z,100058.00
2022-08-21T23:42:45.611Z,100083.81
2022-08-21T23:47:59.280Z,100096.06
2022-08-21T23:53:38.890Z,100116.63
2022-08-21T23:58:46.398Z,100118.28
